Latest Weather Observations for Lake Macquarie - Cooranbong

IDN60901

Issued at 4:11 pm EDT Friday 20 October 2017 (issued every 10 minutes, with the page automatically refreshed every 10 minutes)

About weather observations | Map of Sydney area stations | Latest observations for Sydney area | Other Formats
Station Details ID: 061412 Name: LAKE MACQUARIE AWS Lat: -33.09 Lon: 151.46 Height: 6.0 m
Data from the previous 72 hours. | See also: Recent months at Lake Macquarie - Cooranbong
Date/Time
EDT
Temp
°C
App
Temp
°C
Dew
Point
°C
Rel
Hum
%
Delta-T
°C
Wind Press
QNH
hPa
Press
MSL
hPa
Rain since
9am
mm
Dir  Spd
km/h
Gust
km/h
Spd
kts
Gust
kts
20/04:00pm 15.9 16.4 14.9 94 0.6 SSW 6 13 3 7 1020.3 1020.3 25.0
20/03:30pm 16.2 16.6 15.2 94 0.6 S 7 13 4 7 1020.2 1020.2 24.2
20/03:00pm 16.1 17.0 15.1 94 0.6 SW 4 11 2 6 1020.5 1020.5 24.0
20/02:30pm 16.2 16.7 15.1 93 0.6 SSW 6 17 3 9 1020.6 1020.6 23.0
20/02:00pm 16.8 17.3 15.5 92 0.8 SSW 7 20 4 11 1020.3 1020.3 21.0
20/01:30pm 17.1 17.4 16.0 93 0.6 SSW 9 19 5 10 1019.8 1019.8 20.4
20/01:00pm 17.5 17.9 16.2 92 0.8 S 9 20 5 11 1019.6 1019.6 18.8
20/12:30pm 19.7 22.8 18.7 94 0.6 CALM 0 4 0 2 1019.4 1019.4 12.6
20/12:00pm 20.0 23.3 19.0 94 0.6 CALM 0 0 0 0 1019.4 1019.4 7.2
20/11:30am 20.0 23.0 19.2 95 0.5 N 2 2 1 1 1019.6 1019.6 4.2
20/11:00am 19.9 23.1 18.9 94 0.6 CALM 0 4 0 2 1019.7 1019.7 2.8
20/10:30am 19.9 23.1 18.9 94 0.6 CALM 0 0 0 0 1020.0 1020.0 1.6
20/10:00am 19.7 22.1 18.9 95 0.5 NW 4 6 2 3 1020.2 1020.2 1.0
20/09:30am 19.4 21.8 18.7 96 0.4 NNW 4 6 2 3 1020.1 1020.1 0.4
20/09:00am 19.1 22.1 18.4 96 0.4 CALM 0 0 0 0 1020.1 1020.1 6.0
20/08:30am 18.7 20.8 18.0 96 0.4 N 4 6 2 3 1020.0 1020.0 4.6
20/08:00am 18.6 21.4 17.9 96 0.4 CALM 0 4 0 2 1019.8 1019.8 3.2
20/07:30am 18.3 20.6 17.7 96 0.4 NW 2 6 1 3 1019.6 1019.6 2.0
20/07:00am 18.0 19.8 17.4 96 0.4 WNW 4 6 2 3 1019.2 1019.2 1.0
20/06:30am 17.1 19.1 16.1 94 0.6 CALM 0 0 0 0 1018.8 1018.8 0.8
20/06:00am 17.2 19.2 15.9 92 0.8 CALM 0 0 0 0 1018.3 1018.3 0.2
20/05:30am 17.2 19.1 15.7 91 0.9 CALM 0 0 0 0 1017.7 1017.7 0.2
20/05:00am 16.9 18.4 15.8 93 0.6 E 2 4 1 2 1017.2 1017.2 0.2
20/04:30am 16.8 18.8 16.0 95 0.5 CALM 0 0 0 0 1017.2 1017.2 0.2
20/04:00am 16.3 18.2 15.7 96 0.4 CALM 0 4 0 2 1017.0 1017.0 0.2
20/03:30am 16.0 17.8 15.4 96 0.3 CALM 0 0 0 0 1016.8 1016.8 0.2
20/03:00am 15.7 17.4 15.1 96 0.3 CALM 0 0 0 0 1017.0 1017.0 0.2
20/02:30am 15.6 17.2 15.0 96 0.3 CALM 0 0 0 0 1017.0 1017.0 0.2
20/02:00am 15.7 17.4 15.1 96 0.3 CALM 0 0 0 0 1017.3 1017.3 0.2
20/01:30am 15.5 17.0 14.7 95 0.5 CALM 0 0 0 0 1017.6 1017.6 0.2
20/01:00am 15.8 17.4 15.0 95 0.5 CALM 0 0 0 0 1017.9 1017.9 0.2
20/12:30am 16.1 17.8 15.1 94 0.6 CALM 0 0 0 0 1018.4 1018.4 0.2
20/12:00am 16.5 18.2 15.2 92 0.8 CALM 0 0 0 0 1018.8 1018.8 0.2
 
Date/Time
EDT
Temp
°C
App
Temp
°C
Dew
Point
°C
Rel
Hum
%
Delta-T
°C
Wind Press
QNH
hPa
Press
MSL
hPa
Rain since
9am
mm
Dir  Spd
km/h
Gust
km/h
Spd
kts
Gust
kts
19/11:30pm 16.9 18.7 15.4 91 0.9 CALM 0 0 0 0 1018.9 1018.9 0.2
19/11:00pm 17.1 18.9 15.6 91 0.9 CALM 0 0 0 0 1019.1 1019.1 0.2
19/10:30pm 17.9 19.8 15.7 87 1.3 CALM 0 0 0 0 1019.2 1019.2 0.2
19/10:00pm 18.7 20.5 15.4 81 1.9 CALM 0 0 0 0 1019.4 1019.4 0.2
19/09:30pm 19.6 21.0 15.3 76 2.5 NE 2 4 1 2 1019.4 1019.4 0.2
19/09:00pm 21.0 22.2 15.8 72 3.1 NE 4 6 2 3 1019.4 1019.4 0.2
19/08:30pm 19.7 21.6 16.7 83 1.8 ENE 2 4 1 2 1019.3 1019.3 0.2
19/08:00pm 20.6 23.0 17.0 80 2.2 CALM 0 0 0 0 1019.1 1019.1 0.2
19/07:30pm 21.4 23.7 16.8 75 2.8 CALM 0 2 0 1 1019.1 1019.1 0.2
19/07:00pm 22.4 23.6 16.9 71 3.4 ESE 6 7 3 4 1018.8 1018.8 0.2
19/06:30pm 23.7 24.8 17.0 66 4.1 ESE 7 9 4 5 1018.7 1018.7 0.2
19/06:00pm 24.6 25.3 17.1 63 4.6 ESE 9 13 5 7 1018.7 1018.7 0.2
19/05:30pm 25.1 25.3 16.8 60 5.1 ESE 11 17 6 9 1018.8 1018.8 0.2
19/05:00pm 25.4 25.4 17.1 60 5.1 E 13 20 7 11 1018.9 1018.9 0.2
19/04:30pm 25.3 25.1 17.5 62 4.9 ESE 15 20 8 11 1019.0 1019.0 0.2
19/04:00pm 25.6 25.3 16.5 57 5.6 E 13 22 7 12 1019.3 1019.3 0.2
19/03:30pm 25.8 25.4 16.1 55 5.9 E 13 24 7 13 1019.7 1019.7 0.2
19/03:00pm 25.6 24.9 16.5 57 5.6 ESE 15 24 8 13 1020.2 1020.2 0.2
19/02:30pm 25.7 25.1 15.7 54 6.1 ESE 13 20 7 11 1020.7 1020.7 0.2
19/02:00pm 25.9 24.9 15.6 53 6.2 ESE 15 24 8 13 1021.2 1021.2 0.2
19/01:30pm 25.8 24.4 14.6 50 6.7 ESE 15 24 8 13 1021.8 1021.8 0.2
19/01:00pm 27.8 28.1 13.3 40 8.5 NNW 4 9 2 5 1022.1 1022.1 0.2
19/12:30pm 26.8 26.3 12.8 42 8.2 NNE 7 19 4 10 1022.6 1022.6 0.2
19/12:00pm 26.3 26.1 13.1 44 7.7 NNE 6 15 3 8 1023.2 1023.2 0.2
19/11:30am 25.7 25.7 14.2 49 6.8 NE 7 15 4 8 1023.7 1023.7 0.2
19/11:00am 24.4 24.0 13.0 49 6.6 ENE 7 15 4 8 1024.2 1024.2 0.2
19/10:30am 24.1 24.3 14.2 54 5.8 NNE 6 13 3 7 1024.7 1024.7 0.0
19/10:00am 23.3 23.4 14.0 56 5.4 NE 6 11 3 6 1025.2 1025.2 0.0
19/09:30am 22.3 22.7 14.7 62 4.5 NNW 6 13 3 7 1025.5 1025.5 0.0
19/09:00am 21.1 21.2 13.8 63 4.2 NNE 6 11 3 6 1025.6 1025.6 0.0
19/08:30am 19.2 19.9 14.5 74 2.7 N 4 9 2 5 1025.6 1025.6 0.0
19/08:00am 16.6 18.2 14.8 89 1.0 CALM 0 0 0 0 1025.7 1025.7 0.0
19/07:30am 14.3 15.6 14.0 98 0.2 CALM 0 0 0 0 1025.6 1025.6 0.0
19/07:00am 12.0 12.5 11.5 97 0.3 CALM 0 0 0 0 1025.4 1025.4 0.0
19/06:30am 11.8 12.3 11.5 98 0.2 CALM 0 0 0 0 1025.2 1025.2 0.0
19/06:00am 12.1 12.6 11.6 97 0.3 CALM 0 0 0 0 1025.1 1025.1 0.0
19/05:30am 12.3 12.9 11.8 97 0.3 CALM 0 2 0 1 1024.8 1024.8 0.0
19/05:00am 12.7 13.4 12.2 97 0.3 CALM 0 0 0 0 1024.5 1024.5 0.0
19/04:30am 12.6 13.2 12.0 96 0.3 CALM 0 2 0 1 1024.4 1024.4 0.0
19/04:00am 12.9 13.2 12.3 96 0.3 WNW 2 4 1 2 1024.7 1024.7 0.0
19/03:30am 12.9 13.3 12.6 98 0.2 NNE 2 6 1 3 1024.8 1024.8 0.0
19/03:00am 12.6 13.2 12.0 96 0.3 CALM 0 2 0 1 1025.2 1025.2 0.0
19/02:30am 13.0 13.8 12.4 96 0.3 CALM 0 0 0 0 1025.3 1025.3 0.0
19/02:00am 13.2 14.0 12.6 96 0.3 CALM 0 0 0 0 1025.4 1025.4 0.0
19/01:30am 13.1 13.8 12.3 95 0.4 CALM 0 0 0 0 1025.9 1025.9 0.0
19/01:00am 13.7 14.6 12.9 95 0.4 CALM 0 0 0 0 1026.4 1026.4 0.0
19/12:30am 13.8 14.6 12.7 93 0.6 CALM 0 0 0 0 1026.6 1026.6 0.0
19/12:00am 14.5 15.4 13.0 91 0.8 CALM 0 0 0 0 1026.7 1026.7 0.0
 
Date/Time
EDT
Temp
°C
App
Temp
°C
Dew
Point
°C
Rel
Hum
%
Delta-T
°C
Wind Press
QNH
hPa
Press
MSL
hPa
Rain since
9am
mm
Dir  Spd
km/h
Gust
km/h
Spd
kts
Gust
kts
18/11:30pm 15.0 16.0 13.2 89 1.0 CALM 0 0 0 0 1026.7 1026.7 0.0
18/11:00pm 16.1 17.1 13.2 83 1.6 CALM 0 0 0 0 1026.9 1026.9 0.0
18/10:30pm 17.4 18.2 13.7 79 2.1 N 2 4 1 2 1026.9 1026.9 0.0
18/10:00pm 17.7 17.8 13.8 78 2.2 N 6 9 3 5 1027.0 1027.0 0.0
18/09:30pm 18.5 19.4 14.0 75 2.6 NNE 2 6 1 3 1026.9 1026.9 0.0
18/09:00pm 19.6 19.3 14.4 72 3.0 NE 9 20 5 11 1026.7 1026.7 0.0
18/08:30pm 19.4 20.1 14.4 73 2.9 NE 4 11 2 6 1026.5 1026.5 0.0
18/08:00pm 19.9 20.0 14.5 71 3.1 NE 7 15 4 8 1026.2 1026.2 0.0
18/07:30pm 19.9 20.1 14.7 72 3.0 ENE 7 19 4 10 1026.0 1026.0 0.0
18/07:00pm 20.3 20.6 14.9 71 3.2 NE 7 13 4 7 1025.8 1025.8 0.0
18/06:30pm 20.8 20.6 14.7 68 3.6 ENE 9 20 5 11 1025.5 1025.5 0.0
18/06:00pm 21.6 21.0 14.7 65 4.0 ENE 11 26 6 14 1025.3 1025.3 0.0
18/05:30pm 21.9 20.5 14.5 63 4.3 E 15 32 8 17 1025.2 1025.2 0.0
18/05:00pm 22.3 20.9 14.4 61 4.6 ENE 15 32 8 17 1025.1 1025.1 0.0
18/04:30pm 22.1 20.5 15.0 64 4.2 E 17 33 9 18 1025.1 1025.1 0.0
18/04:00pm 21.6 19.6 15.0 66 3.9 E 19 32 10 17 1025.2 1025.2 0.0
18/03:30pm 22.6 20.9 14.7 61 4.7 E 17 35 9 19 1025.3 1025.3 0.0
18/03:00pm 22.9 20.5 14.5 59 4.9 E 20 35 11 19 1025.4 1025.4 0.0
18/02:30pm 22.9 20.3 15.0 61 4.7 E 22 35 12 19 1025.7 1025.7 0.0
18/02:00pm 22.1 19.9 15.0 64 4.2 E 20 35 11 19 1026.1 1026.1 0.0
18/01:30pm 22.8 20.7 15.1 62 4.6 E 20 41 11 22 1026.3 1026.3 0.0
18/01:00pm 21.9 19.7 15.0 65 4.1 E 20 35 11 19 1026.6 1026.6 0.0
18/12:30pm 21.7 20.1 15.1 66 3.9 E 17 28 9 15 1027.1 1027.1 0.0
18/12:00pm 22.4 21.7 15.3 64 4.2 E 13 24 7 13 1027.5 1027.5 0.0
18/11:30am 22.0 21.9 14.9 64 4.2 E 9 24 5 13 1028.0 1028.0 0.0
18/11:00am 22.2 21.7 14.8 63 4.3 ENE 11 20 6 11 1028.5 1028.5 0.0
18/10:30am 20.6 20.4 14.7 69 3.5 NE 9 20 5 11 1028.9 1028.9 0.0
18/10:00am 21.2 20.8 15.1 68 3.6 NE 11 22 6 12 1028.9 1028.9 0.0
18/09:30am 20.9 20.8 15.0 69 3.5 NE 9 20 5 11 1028.8 1028.8 0.0
18/09:00am 20.4 20.3 15.0 71 3.2 ENE 9 17 5 9 1028.7 1028.7 0.0
18/08:30am 19.6 20.2 15.9 79 2.2 NNE 7 11 4 6 1028.7 1028.7 0.0
18/08:00am 18.8 19.7 16.2 85 1.5 N 6 11 3 6 1028.5 1028.5 0.0
18/07:30am 17.2 19.3 16.2 94 0.6 CALM 0 0 0 0 1028.2 1028.2 0.0
18/07:00am 15.7 17.4 15.2 97 0.3 CALM 0 2 0 1 1028.1 1028.1 0.0
18/06:30am 15.5 17.1 15.0 97 0.3 CALM 0 2 0 1 1027.7 1027.7 0.0
18/06:00am 14.8 15.1 14.5 98 0.2 N 6 9 3 5 1027.6 1027.6 0.0
18/05:30am 14.2 15.4 13.7 97 0.3 CALM 0 0 0 0 1027.1 1027.1 0.0
18/05:00am 13.6 14.6 13.1 97 0.3 CALM 0 0 0 0 1026.9 1026.9 0.0
18/04:30am 13.6 14.6 13.1 97 0.3 CALM 0 0 0 0 1026.8 1026.8 0.0
18/04:00am 13.9 15.0 13.4 97 0.3 CALM 0 0 0 0 1026.8 1026.8 0.0
18/03:30am 13.8 14.8 13.2 96 0.3 CALM 0 0 0 0 1027.0 1027.0 0.0
18/03:00am 13.8 14.8 13.3 97 0.3 CALM 0 0 0 0 1027.3 1027.3 0.0
18/02:30am 14.0 15.0 13.2 95 0.4 CALM 0 0 0 0 1027.7 1027.7 0.0
18/02:00am 13.9 15.0 13.4 97 0.3 CALM 0 0 0 0 1028.1 1028.1 0.0
18/01:30am 14.1 15.2 13.5 96 0.3 CALM 0 0 0 0 1028.4 1028.4 0.0
18/01:00am 14.4 15.5 13.6 95 0.4 CALM 0 0 0 0 1028.5 1028.5 0.0
18/12:30am 15.2 16.4 13.9 92 0.7 CALM 0 0 0 0 1028.8 1028.8 0.0
18/12:00am 16.2 17.5 14.0 87 1.2 CALM 0 0 0 0 1028.7 1028.7 0.0
 
Date/Time
EDT
Temp
°C
App
Temp
°C
Dew
Point
°C
Rel
Hum
%
Delta-T
°C
Wind Press
QNH
hPa
Press
MSL
hPa
Rain since
9am
mm
Dir  Spd
km/h
Gust
km/h
Spd
kts
Gust
kts
17/11:30pm 17.9 18.7 14.8 82 1.8 NNE 4 6 2 3 1028.8 1028.8 0.0
17/11:00pm 18.4 18.9 15.1 81 1.9 NE 6 11 3 6 1028.7 1028.7 0.0
17/10:30pm 18.8 19.2 15.3 80 2.1 ENE 7 13 4 7 1028.6 1028.6 0.0
17/10:00pm 18.8 19.2 15.3 80 2.0 NE 7 17 4 9 1028.4 1028.4 0.0
17/09:30pm 18.8 19.4 15.3 80 2.1 NE 6 15 3 8 1028.0 1028.0 0.0
17/09:00pm 18.9 19.5 15.2 79 2.2 NE 6 11 3 6 1027.8 1027.8 0.0
17/08:30pm 19.0 19.3 14.9 77 2.4 NE 7 15 4 8 1027.5 1027.5 0.0
17/08:00pm 19.1 19.3 14.8 76 2.5 ENE 7 15 4 8 1027.2 1027.2 0.0
17/07:30pm 19.3 19.1 14.8 75 2.6 ENE 9 22 5 12 1027.0 1027.0 0.0
17/07:00pm 19.6 18.7 14.8 74 2.8 ENE 13 24 7 13 1026.8 1026.8 0.0
17/06:30pm 19.8 19.3 14.8 73 2.9 E 11 24 6 13 1026.4 1026.4 0.0
17/06:00pm 20.1 18.8 14.9 72 3.0 ENE 15 35 8 19 1026.2 1026.2 0.0
17/05:30pm 20.4 19.1 14.7 70 3.3 E 15 30 8 16 1026.2 1026.2 0.0
17/05:00pm 21.4 20.5 14.8 66 3.9 ENE 13 22 7 12 1026.3 1026.3 0.0
17/04:30pm 21.1 19.4 14.7 67 3.8 E 17 33 9 18 1026.3 1026.3 0.0

Latest Capital City Observations: Canberra | Sydney | Melbourne | Brisbane | Adelaide | Perth | Hobart | Darwin

Other Formats:

Comma delimited format used in spreadsheet applications
http://www.bom.gov.au/fwo/IDN60901/IDN60901.95767.axf

JavaScript Object Notation format (JSON) in row-major order
http://www.bom.gov.au/fwo/IDN60901/IDN60901.95767.json